createdAt,value
2022-09-03T00:01:38.873Z,17.27
2022-09-03T00:04:48.120Z,17.20
2022-09-03T00:07:58.681Z,16.96
2022-09-03T00:11:06.949Z,17.08
2022-09-03T00:14:16.553Z,17.23
2022-09-03T00:17:23.673Z,17.14
2022-09-03T00:20:32.995Z,16.90
2022-09-03T00:23:39.355Z,17.04
2022-09-03T00:26:45.714Z,17.15
2022-09-03T00:29:54.132Z,17.16
2022-09-03T00:33:00.603Z,17.19
2022-09-03T00:36:12.509Z,17.25
2022-09-03T00:39:17.342Z,17.22
2022-09-03T00:42:36.373Z,17.11
2022-09-03T00:45:50.445Z,16.78
2022-09-03T00:49:09.933Z,17.08
2022-09-03T00:52:23.323Z,16.93
2022-09-03T00:55:36.957Z,17.03
2022-09-03T00:58:55.600Z,16.87
2022-09-03T01:02:13.172Z,16.79
2022-09-03T01:05:28.993Z,16.86
2022-09-03T01:08:49.838Z,16.73
2022-09-03T01:12:00.417Z,16.87
2022-09-03T01:15:13.276Z,16.77
2022-09-03T01:18:25.866Z,16.81
2022-09-03T01:21:58.681Z,16.95
2022-09-03T01:25:17.563Z,16.92
2022-09-03T01:28:32.847Z,16.89
2022-09-03T01:31:42.280Z,16.84
2022-09-03T01:34:55.273Z,16.83
2022-09-03T01:38:09.699Z,16.82
2022-09-03T01:41:38.337Z,16.50
2022-09-03T01:44:55.354Z,16.82
2022-09-03T01:48:22.723Z,16.88
2022-09-03T01:51:28.567Z,16.80
2022-09-03T01:54:45.842Z,16.50
2022-09-03T01:57:56.007Z,16.78
2022-09-03T02:01:06.370Z,16.76
2022-09-03T02:04:20.517Z,16.75
2022-09-03T02:07:24.979Z,16.86
2022-09-03T02:10:31.707Z,16.98
2022-09-03T02:13:38.918Z,16.68
2022-09-03T02:16:44.368Z,16.86
2022-09-03T02:19:47.000Z,16.96
2022-09-03T02:22:50.693Z,16.69
2022-09-03T02:25:57.192Z,16.76
2022-09-03T02:29:02.135Z,16.56
2022-09-03T02:32:06.429Z,16.73
2022-09-03T02:35:10.222Z,16.76
2022-09-03T02:38:14.035Z,16.72
2022-09-03T02:41:16.588Z,16.84
2022-09-03T02:44:27.165Z,16.75
2022-09-03T02:47:34.217Z,16.63
2022-09-03T02:50:42.109Z,16.52
2022-09-03T02:53:44.821Z,16.32
2022-09-03T02:56:48.332Z,16.57
2022-09-03T02:59:50.935Z,16.64
2022-09-03T03:02:56.131Z,16.61
2022-09-03T03:06:02.454Z,16.41
2022-09-03T03:09:05.922Z,16.35
2022-09-03T03:12:09.865Z,16.48
2022-09-03T03:15:12.492Z,16.44
2022-09-03T03:18:17.508Z,16.32
2022-09-03T03:21:20.841Z,16.38
2022-09-03T03:24:23.382Z,16.33
2022-09-03T03:27:26.017Z,16.32
2022-09-03T03:30:29.272Z,16.29
2022-09-03T03:33:33.259Z,16.03
2022-09-03T03:36:37.039Z,15.98
2022-09-03T03:39:39.674Z,16.12
2022-09-03T03:42:42.442Z,16.15
2022-09-03T03:45:45.035Z,16.03
2022-09-03T03:48:49.912Z,15.84
2022-09-03T03:51:52.531Z,15.84
2022-09-03T03:54:56.531Z,15.89
2022-09-03T03:57:59.929Z,15.72
2022-09-03T04:01:06.670Z,15.87
2022-09-03T04:04:10.642Z,15.80
2022-09-03T04:07:13.201Z,15.57
2022-09-03T04:10:16.429Z,15.72
2022-09-03T04:13:19.025Z,15.98
2022-09-03T04:16:23.708Z,15.94
2022-09-03T04:19:28.494Z,16.02
2022-09-03T04:22:31.076Z,15.97
2022-09-03T04:25:33.843Z,16.04
2022-09-03T04:28:37.576Z,16.05
2022-09-03T04:32:00.839Z,16.08
2022-09-03T04:35:05.119Z,16.02
2022-09-03T04:38:07.971Z,15.85
2022-09-03T04:41:12.033Z,15.97
2022-09-03T04:44:14.627Z,15.97
2022-09-03T04:47:17.247Z,15.98
2022-09-03T04:50:21.958Z,15.92
2022-09-03T04:53:24.537Z,15.88
2022-09-03T04:56:28.820Z,15.77
2022-09-03T04:59:31.408Z,15.78
2022-09-03T05:02:34.046Z,15.63
2022-09-03T05:05:38.054Z,15.78
2022-09-03T05:08:40.669Z,15.41
2022-09-03T05:11:43.244Z,15.68
2022-09-03T05:14:45.805Z,15.66
2022-09-03T05:17:48.425Z,15.76
2022-09-03T05:20:59.782Z,15.90
2022-09-03T05:24:03.050Z,16.01
2022-09-03T05:27:05.650Z,15.69
2022-09-03T05:30:09.450Z,15.68
2022-09-03T05:33:11.986Z,15.89
2022-09-03T05:36:18.029Z,16.06
2022-09-03T05:39:20.687Z,16.12
2022-09-03T05:42:23.325Z,15.90
2022-09-03T05:45:25.947Z,15.80
2022-09-03T05:48:29.315Z,15.98
2022-09-03T05:51:34.216Z,15.85
2022-09-03T05:54:36.825Z,16.00
2022-09-03T05:57:41.185Z,16.15
2022-09-03T06:00:43.785Z,15.90
2022-09-03T06:03:48.578Z,15.85
2022-09-03T06:06:52.561Z,15.91
2022-09-03T06:09:55.351Z,15.67
2022-09-03T06:13:03.937Z,15.95
2022-09-03T06:16:08.421Z,16.29
2022-09-03T06:19:13.166Z,16.32
2022-09-03T06:22:17.136Z,16.23
2022-09-03T06:25:20.232Z,16.32
2022-09-03T06:28:24.627Z,16.32
2022-09-03T06:31:29.372Z,16.33
2022-09-03T06:34:32.206Z,16.29
2022-09-03T06:37:40.233Z,16.58
2022-09-03T06:40:43.058Z,16.48
2022-09-03T06:43:46.350Z,16.62
2022-09-03T06:46:49.053Z,16.63
2022-09-03T06:49:51.800Z,16.81
2022-09-03T06:52:55.949Z,17.00
2022-09-03T06:56:00.131Z,16.94
2022-09-03T06:59:06.321Z,17.09
2022-09-03T07:02:09.077Z,17.17
2022-09-03T07:05:11.744Z,17.38
2022-09-03T07:08:15.928Z,17.42
2022-09-03T07:11:21.978Z,17.66
2022-09-03T07:14:24.638Z,17.96
2022-09-03T07:17:27.190Z,18.06
2022-09-03T07:20:29.831Z,18.11
2022-09-03T07:23:34.415Z,18.29
2022-09-03T07:26:39.468Z,18.30
2022-09-03T07:29:42.030Z,18.36
2022-09-03T07:32:44.648Z,18.66
2022-09-03T07:35:47.800Z,18.80
2022-09-03T07:38:52.431Z,18.78
2022-09-03T07:41:55.060Z,18.90
2022-09-03T07:44:58.479Z,18.94
2022-09-03T07:48:01.049Z,19.22
2022-09-03T07:51:03.767Z,19.23
2022-09-03T07:54:10.945Z,19.54
2022-09-03T07:57:13.777Z,19.72
2022-09-03T08:00:17.700Z,19.87
2022-09-03T08:03:20.274Z,19.84
2022-09-03T08:06:25.832Z,19.92
2022-09-03T08:09:29.757Z,20.29
2022-09-03T08:12:32.648Z,20.62
2022-09-03T08:15:37.031Z,20.74
2022-09-03T08:18:40.036Z,20.60
2022-09-03T08:21:42.985Z,20.88
2022-09-03T08:24:46.930Z,21.02
2022-09-03T08:27:49.539Z,21.37
2022-09-03T08:30:52.121Z,21.72
2022-09-03T08:33:56.333Z,21.65
2022-09-03T08:37:01.325Z,22.00
2022-09-03T08:40:06.285Z,22.32
2022-09-03T08:43:17.420Z,22.32
2022-09-03T08:46:22.629Z,22.71
2022-09-03T08:49:29.924Z,23.10
2022-09-03T08:52:37.464Z,23.32
2022-09-03T08:55:48.451Z,23.21
2022-09-03T08:58:51.241Z,23.52
2022-09-03T09:01:58.245Z,23.87
2022-09-03T09:05:07.644Z,23.96
2022-09-03T09:08:22.494Z,24.29
2022-09-03T09:11:41.656Z,24.59
2022-09-03T09:14:51.447Z,24.67
2022-09-03T09:18:07.349Z,24.61
2022-09-03T09:21:20.306Z,24.59
2022-09-03T09:24:26.429Z,24.67
2022-09-03T09:27:30.737Z,25.07
2022-09-03T09:30:34.076Z,25.41
2022-09-03T09:33:36.888Z,25.63
2022-09-03T09:36:45.512Z,25.74
2022-09-03T09:39:57.597Z,25.84
2022-09-03T09:43:10.819Z,25.87
2022-09-03T09:46:15.756Z,26.35
2022-09-03T09:49:32.427Z,26.49
2022-09-03T09:52:35.202Z,26.86
2022-09-03T09:55:49.127Z,27.02
2022-09-03T09:59:03.945Z,27.52
2022-09-03T10:02:13.651Z,27.01
2022-09-03T10:05:24.419Z,26.47
2022-09-03T10:08:27.021Z,25.65
2022-09-03T10:11:31.055Z,26.10
2022-09-03T10:14:39.453Z,26.53
2022-09-03T10:17:51.645Z,26.67
2022-09-03T10:21:06.207Z,27.43
2022-09-03T10:24:25.478Z,27.88
2022-09-03T10:27:28.812Z,28.11
2022-09-03T10:30:47.614Z,28.36
2022-09-03T10:33:57.137Z,28.18
2022-09-03T10:37:09.051Z,28.45
2022-09-03T10:40:30.767Z,28.14
2022-09-03T10:43:53.050Z,28.16
2022-09-03T10:47:12.854Z,28.64
2022-09-03T10:50:20.221Z,28.70
2022-09-03T10:53:44.984Z,28.79
2022-09-03T10:56:58.532Z,28.80
2022-09-03T11:00:08.296Z,29.12
2022-09-03T11:03:39.638Z,28.21
2022-09-03T11:06:51.051Z,27.56
2022-09-03T11:09:58.190Z,27.41
2022-09-03T11:13:07.609Z,26.53
2022-09-03T11:16:16.227Z,27.46
2022-09-03T11:19:26.652Z,28.51
2022-09-03T11:22:31.186Z,27.49
2022-09-03T11:25:37.161Z,27.54
2022-09-03T11:28:46.804Z,28.46
2022-09-03T11:32:02.187Z,29.43
2022-09-03T11:35:15.181Z,30.21
2022-09-03T11:38:24.745Z,30.15
2022-09-03T11:41:28.797Z,30.48
2022-09-03T11:44:37.706Z,30.05
2022-09-03T11:47:49.299Z,29.69
2022-09-03T11:50:57.218Z,30.58
2022-09-03T11:54:01.853Z,31.31
2022-09-03T11:57:11.576Z,30.95
2022-09-03T12:00:18.506Z,31.24
2022-09-03T12:03:28.490Z,30.07
2022-09-03T12:06:56.973Z,28.70
2022-09-03T12:10:24.692Z,29.60
2022-09-03T12:13:47.789Z,31.23
2022-09-03T12:17:10.079Z,30.92
2022-09-03T12:20:15.385Z,31.23
2022-09-03T12:23:29.696Z,30.92
2022-09-03T12:26:40.895Z,31.11
2022-09-03T12:29:59.826Z,30.87
2022-09-03T12:33:07.489Z,28.78
2022-09-03T12:36:10.897Z,30.53
2022-09-03T12:39:18.804Z,30.90
2022-09-03T12:42:26.074Z,31.03
2022-09-03T12:46:09.831Z,30.44
2022-09-03T12:52:22.097Z,31.29
2022-09-03T12:55:36.784Z,31.23
2022-09-03T12:58:48.195Z,31.35
2022-09-03T13:01:55.919Z,32.06
2022-09-03T13:04:58.966Z,30.74
2022-09-03T13:08:05.500Z,30.24
2022-09-03T13:11:09.628Z,30.60
2022-09-03T13:14:15.370Z,31.25
2022-09-03T13:17:54.352Z,31.43
2022-09-03T13:21:12.108Z,30.68
2022-09-03T13:24:38.085Z,30.61
2022-09-03T13:27:47.754Z,30.99
2022-09-03T13:30:58.474Z,30.98
2022-09-03T13:34:06.652Z,30.93
2022-09-03T13:37:21.662Z,31.49
2022-09-03T13:40:29.380Z,30.77
2022-09-03T13:43:42.393Z,30.22
2022-09-03T13:46:49.655Z,29.67
2022-09-03T13:50:13.489Z,28.09
2022-09-03T13:53:22.780Z,29.29
2022-09-03T13:56:36.290Z,28.98
2022-09-03T13:59:50.045Z,29.34
2022-09-03T14:02:58.011Z,29.06
2022-09-03T14:06:10.087Z,28.28
2022-09-03T14:09:21.081Z,27.70
2022-09-03T14:12:38.513Z,26.80
2022-09-03T14:15:50.978Z,27.03
2022-09-03T14:19:00.490Z,27.32
2022-09-03T14:22:10.705Z,26.80
2022-09-03T14:25:18.026Z,25.64
2022-09-03T14:28:31.128Z,25.91
2022-09-03T14:32:02.632Z,25.97
2022-09-03T14:35:32.682Z,25.81
2022-09-03T14:39:01.080Z,25.60
2022-09-03T14:42:28.920Z,25.38
2022-09-03T14:45:50.113Z,25.62
2022-09-03T14:49:18.668Z,25.50
2022-09-03T14:52:42.500Z,25.42
2022-09-03T14:56:02.368Z,25.47
2022-09-03T14:59:18.746Z,24.64
2022-09-03T15:02:46.185Z,24.30
2022-09-03T15:06:13.990Z,24.55
2022-09-03T15:09:28.534Z,24.59
2022-09-03T15:12:36.868Z,24.57
2022-09-03T15:15:55.482Z,24.66
2022-09-03T15:19:17.868Z,24.49
2022-09-03T15:22:32.054Z,24.55
2022-09-03T15:25:54.241Z,24.45
2022-09-03T15:29:08.942Z,23.64
2022-09-03T15:32:23.625Z,23.97
2022-09-03T15:35:41.341Z,24.05
2022-09-03T15:38:51.996Z,24.17
2022-09-03T15:41:58.184Z,23.49
2022-09-03T15:45:09.707Z,23.66
2022-09-03T15:48:21.441Z,23.39
2022-09-03T15:51:29.441Z,23.76
2022-09-03T15:54:43.416Z,23.91
2022-09-03T15:57:54.812Z,23.92
2022-09-03T16:01:03.099Z,23.79
2022-09-03T16:04:33.421Z,23.60
2022-09-03T16:07:50.314Z,23.56
2022-09-03T16:11:02.883Z,23.60
2022-09-03T16:14:11.881Z,23.23
2022-09-03T16:17:23.658Z,23.19
2022-09-03T16:20:35.189Z,23.31
2022-09-03T16:23:47.559Z,23.43
2022-09-03T16:26:57.600Z,23.34
2022-09-03T16:30:09.201Z,23.39
2022-09-03T16:33:21.514Z,23.25
2022-09-03T16:36:38.358Z,23.09
2022-09-03T16:39:51.987Z,22.52
2022-09-03T16:43:23.558Z,22.98
2022-09-03T16:46:37.177Z,22.79
2022-09-03T16:49:49.722Z,22.65
2022-09-03T16:53:04.136Z,22.54
2022-09-03T16:56:24.517Z,22.66
2022-09-03T16:59:41.439Z,22.72
2022-09-03T17:03:26.043Z,22.43
2022-09-03T17:06:47.258Z,22.36
2022-09-03T17:09:59.535Z,22.62
2022-09-03T17:13:30.042Z,22.61
2022-09-03T17:16:46.986Z,22.41
2022-09-03T17:19:54.614Z,22.09
2022-09-03T17:23:09.640Z,22.16
2022-09-03T17:26:21.193Z,22.18
2022-09-03T17:29:38.808Z,22.17
2022-09-03T17:33:10.702Z,22.18
2022-09-03T17:36:17.956Z,22.17
2022-09-03T17:39:46.186Z,22.12
2022-09-03T17:42:57.943Z,22.05
2022-09-03T17:46:11.731Z,21.92
2022-09-03T17:49:22.642Z,21.88
2022-09-03T17:52:29.644Z,21.77
2022-09-03T17:55:36.941Z,21.75
2022-09-03T17:58:44.288Z,21.58
2022-09-03T18:01:53.765Z,21.45
2022-09-03T18:05:03.994Z,21.37
2022-09-03T18:08:13.462Z,21.23
2022-09-03T18:11:24.090Z,21.15
2022-09-03T18:14:34.631Z,21.08
2022-09-03T18:17:44.145Z,20.98
2022-09-03T18:21:24.069Z,20.90
2022-09-03T18:24:50.794Z,20.80
2022-09-03T18:28:16.270Z,20.62
2022-09-03T18:31:36.621Z,20.59
2022-09-03T18:34:57.369Z,20.45
2022-09-03T18:38:21.895Z,20.34
2022-09-03T18:41:59.214Z,20.32
2022-09-03T18:45:33.273Z,20.18
2022-09-03T18:49:11.605Z,20.14
2022-09-03T18:52:39.454Z,20.06
2022-09-03T18:56:13.947Z,19.81
2022-09-03T18:59:48.909Z,19.82
2022-09-03T19:03:32.073Z,19.79
2022-09-03T19:07:00.390Z,19.71
2022-09-03T19:10:26.796Z,19.64
2022-09-03T19:13:52.908Z,19.54
2022-09-03T19:17:20.271Z,19.52
2022-09-03T19:20:47.466Z,19.52
2022-09-03T19:24:07.731Z,19.35
2022-09-03T19:27:55.279Z,19.28
2022-09-03T19:31:37.334Z,19.27
2022-09-03T19:35:15.180Z,19.28
2022-09-03T19:38:42.928Z,19.19
2022-09-03T19:42:11.276Z,19.13
2022-09-03T19:45:41.256Z,19.16
2022-09-03T19:49:15.996Z,19.05
2022-09-03T19:52:47.398Z,18.95
2022-09-03T19:56:11.675Z,18.94
2022-09-03T19:59:36.471Z,18.94
2022-09-03T20:02:57.779Z,18.87
2022-09-03T20:06:23.600Z,18.78
2022-09-03T20:09:49.580Z,18.65
2022-09-03T20:13:03.389Z,18.60
2022-09-03T20:16:13.321Z,18.63
2022-09-03T20:19:25.363Z,18.65
2022-09-03T20:22:34.480Z,18.67
2022-09-03T20:25:50.135Z,18.65
2022-09-03T20:29:11.666Z,18.72
2022-09-03T20:32:25.405Z,18.60
2022-09-03T20:35:39.350Z,18.54
2022-09-03T20:39:07.230Z,18.45
2022-09-03T20:42:28.807Z,18.36
2022-09-03T20:45:41.170Z,18.35
2022-09-03T20:48:55.866Z,18.25
2022-09-03T20:52:07.439Z,18.24
2022-09-03T20:55:18.147Z,18.18
2022-09-03T20:58:31.762Z,18.18
2022-09-03T21:01:41.000Z,18.19
2022-09-03T21:04:52.128Z,18.16
2022-09-03T21:08:05.133Z,18.11
2022-09-03T21:11:15.698Z,18.13
2022-09-03T21:14:29.402Z,18.06
2022-09-03T21:17:46.818Z,17.81
2022-09-03T21:21:01.939Z,17.99
2022-09-03T21:24:09.571Z,18.04
2022-09-03T21:27:20.761Z,17.84
2022-09-03T21:30:23.396Z,18.02
2022-09-03T21:33:29.985Z,18.03
2022-09-03T21:36:36.269Z,17.97
2022-09-03T21:39:44.105Z,17.98
2022-09-03T21:42:55.485Z,17.95
2022-09-03T21:46:04.827Z,17.96
2022-09-03T21:49:11.133Z,17.93
2022-09-03T21:52:18.302Z,17.79
2022-09-03T21:55:23.978Z,17.92
2022-09-03T21:58:54.753Z,17.84
2022-09-03T22:02:04.556Z,17.80
2022-09-03T22:05:08.482Z,17.79
2022-09-03T22:08:22.710Z,17.80
2022-09-03T22:11:34.210Z,17.74
2022-09-03T22:14:47.822Z,17.66
2022-09-03T22:17:54.409Z,17.45
2022-09-03T22:21:13.252Z,17.58
2022-09-03T22:24:22.873Z,17.59
2022-09-03T22:27:35.498Z,17.67
2022-09-03T22:30:49.479Z,17.61
2022-09-03T22:33:59.603Z,17.60
2022-09-03T22:37:06.785Z,17.59
2022-09-03T22:40:22.133Z,17.56
2022-09-03T22:43:38.377Z,17.52
2022-09-03T22:46:54.254Z,17.48
2022-09-03T22:50:08.818Z,17.41
2022-09-03T22:53:22.942Z,17.52
2022-09-03T22:56:25.559Z,17.42
2022-09-03T22:59:35.790Z,17.48
2022-09-03T23:02:41.093Z,17.51
2022-09-03T23:05:52.294Z,17.44
2022-09-03T23:09:00.222Z,17.41
2022-09-03T23:12:08.622Z,17.43
2022-09-03T23:15:14.281Z,17.57
2022-09-03T23:18:26.115Z,17.41
2022-09-03T23:21:39.478Z,17.47
2022-09-03T23:24:45.817Z,17.49
2022-09-03T23:27:53.894Z,17.35
2022-09-03T23:31:11.203Z,17.17
2022-09-03T23:34:15.142Z,17.31
2022-09-03T23:37:34.112Z,17.35
2022-09-03T23:40:45.786Z,17.34
2022-09-03T23:44:26.496Z,17.28
2022-09-03T23:47:45.790Z,17.36
2022-09-03T23:50:59.409Z,17.32
2022-09-03T23:54:07.224Z,17.04
2022-09-03T23:57:19.093Z,17.27
